Time;durP1;ratioP1;P1;durP2;ratioP2;P2;SDS_P1;SDS_P2;PMS_P1;PMS_P2;Temp;Humidity;BMP_temperature;BMP_pressure;BME280_temperature;BME280_humidity;BME280_pressure;Samples;Min_cycle;Max_cycle;Signal;HPM_P1;HPM_P2
2023/02/08 00:02:03;;;;;;;3.78;2.47;;;14.70;54.40;;;;;;4995903;28;20051;-75
2023/02/08 00:04:29;;;;;;;3.83;2.30;;;14.70;54.40;;;;;;4996120;28;20038;-75
2023/02/08 00:06:55;;;;;;;3.67;2.42;;;14.70;54.50;;;;;;4996031;28;20512;-75
2023/02/08 00:09:20;;;;;;;3.08;2.70;;;14.70;54.50;;;;;;4996204;28;20030;-75
2023/02/08 00:11:46;;;;;;;2.80;2.50;;;14.70;54.40;;;;;;4995879;28;20370;-75
2023/02/08 00:14:11;;;;;;;4.72;2.60;;;14.70;54.50;;;;;;4995993;28;20102;-75
2023/02/08 00:16:37;;;;;;;3.17;2.60;;;14.70;54.50;;;;;;4995897;28;20030;-75
2023/02/08 00:19:03;;;;;;;2.70;2.50;;;14.70;54.50;;;;;;4995789;28;20030;-75
2023/02/08 00:21:28;;;;;;;3.15;2.58;;;14.70;55.20;;;;;;4995164;28;20420;-75
2023/02/08 00:23:54;;;;;;;2.95;2.40;;;14.70;54.40;;;;;;4994910;28;20030;-75
2023/02/08 00:26:19;;;;;;;2.40;2.20;;;14.70;54.50;;;;;;4995729;28;20489;-75
2023/02/08 00:28:45;;;;;;;2.95;2.65;;;14.70;54.50;;;;;;4995640;28;20080;-75
2023/02/08 00:31:10;;;;;;;3.40;2.60;;;14.70;54.60;;;;;;4995611;28;20018;-75
2023/02/08 00:33:36;;;;;;;2.95;2.65;;;14.70;54.40;;;;;;4995558;28;20042;-75
2023/02/08 00:36:05;;;;;;;3.22;2.42;;;14.70;54.50;;;;;;4995636;28;20065;-75
2023/02/08 00:38:31;;;;;;;5.00;2.42;;;14.70;54.50;;;;;;4995684;28;20386;-75
2023/02/08 00:40:56;;;;;;;3.53;2.70;;;14.60;54.40;;;;;;4995391;28;20030;-75
2023/02/08 00:43:22;;;;;;;3.08;2.58;;;14.60;54.50;;;;;;4995355;28;20057;-75
2023/02/08 00:45:53;;;;;;;3.08;2.63;;;14.60;55.00;;;;;;4995393;28;20484;-75
2023/02/08 00:48:18;;;;;;;3.33;2.55;;;14.60;54.50;;;;;;4995275;28;20015;-75
2023/02/08 00:50:44;;;;;;;3.15;2.47;;;14.60;54.50;;;;;;4995305;28;20084;-75
2023/02/08 00:53:10;;;;;;;3.90;2.75;;;14.60;54.60;;;;;;4995232;28;20105;-75
2023/02/08 00:55:35;;;;;;;4.13;2.70;;;14.60;54.50;;;;;;4995193;28;20038;-75
2023/02/08 00:58:01;;;;;;;2.70;2.45;;;14.60;54.50;;;;;;4995064;28;20495;-75
2023/02/08 01:00:26;;;;;;;3.53;2.50;;;14.60;54.50;;;;;;4995364;28;20030;-75
2023/02/08 01:02:52;;;;;;;4.05;2.63;;;14.60;54.40;;;;;;4977311;28;20070;-75
2023/02/08 01:05:17;;;;;;;2.90;2.22;;;14.60;54.60;;;;;;4994902;28;20022;-75
2023/02/08 01:07:43;;;;;;;2.90;2.63;;;14.60;54.40;;;;;;4994937;28;20037;-75
2023/02/08 01:10:11;;;;;;;2.22;2.00;;;14.60;54.50;;;;;;4994176;28;20073;-75
2023/02/08 01:12:37;;;;;;;2.90;2.53;;;14.60;54.40;;;;;;4994704;28;20524;-75
2023/02/08 01:15:03;;;;;;;2.83;2.42;;;14.60;54.40;;;;;;4994748;28;20065;-75
2023/02/08 01:17:28;;;;;;;2.92;2.13;;;14.50;54.40;;;;;;4994838;28;20065;-75
2023/02/08 01:19:54;;;;;;;2.97;2.58;;;14.50;54.40;;;;;;4994640;28;20054;-75
2023/02/08 01:22:20;;;;;;;3.10;2.70;;;14.50;54.40;;;;;;4994614;28;20105;-75
2023/02/08 01:24:45;;;;;;;3.33;2.70;;;14.60;54.50;;;;;;4994662;28;20018;-75
2023/02/08 01:27:11;;;;;;;5.03;2.70;;;14.50;54.30;;;;;;4994614;28;20030;-75
2023/02/08 01:29:36;;;;;;;2.95;2.65;;;14.50;54.40;;;;;;4977103;28;20550;-75
2023/02/08 01:32:02;;;;;;;2.97;2.63;;;14.50;54.40;;;;;;4994509;28;20041;-75
2023/02/08 01:34:28;;;;;;;3.42;2.55;;;14.50;54.30;;;;;;4994486;28;20489;-74
2023/02/08 01:36:53;;;;;;;3.28;2.78;;;14.50;54.40;;;;;;4994400;28;20026;-75
2023/02/08 01:39:19;;;;;;;3.83;2.10;;;14.50;54.40;;;;;;4994360;28;20385;-75
2023/02/08 01:41:45;;;;;;;3.38;2.38;;;14.50;54.40;;;;;;4994322;28;20085;-75
2023/02/08 01:44:11;;;;;;;2.78;2.50;;;14.50;54.40;;;;;;4976723;28;20014;-75
2023/02/08 01:46:46;;;;;;;2.20;2.00;;;14.50;54.40;;;;;;4994223;28;20045;-75
2023/02/08 01:49:32;;;;;;;3.42;2.40;;;14.50;55.00;;;;;;4994300;28;20026;-74
2023/02/08 01:52:06;;;;;;;2.60;2.17;;;14.50;54.40;;;;;;4994088;28;20560;-75
2023/02/08 01:54:39;;;;;;;2.83;2.30;;;14.40;54.30;;;;;;4977546;28;20093;-75
2023/02/08 01:57:05;;;;;;;2.97;2.60;;;14.40;54.40;;;;;;4994097;28;20026;-75
2023/02/08 02:00:06;;;;;;;3.50;2.70;;;14.50;54.40;;;;;;4994206;28;20014;-75
2023/02/08 02:02:32;;;;;;;1.83;1.73;;;14.40;54.40;;;;;;4950154;28;20472;-75
2023/02/08 02:04:59;;;;;;;4.75;2.92;;;14.40;54.40;;;;;;4993961;28;20025;-75
2023/02/08 02:07:28;;;;;;;2.90;2.47;;;14.40;54.40;;;;;;4993899;28;20385;-75
2023/02/08 02:10:15;;;;;;;4.10;2.45;;;14.40;54.40;;;;;;4993789;28;20633;-75
2023/02/08 02:12:41;;;;;;;3.20;2.45;;;14.40;54.30;;;;;;4976253;28;20397;-75
2023/02/08 02:15:08;;;;;;;2.88;2.40;;;14.40;54.40;;;;;;4993669;28;20477;-75
2023/02/08 02:17:35;;;;;;;2.90;2.47;;;14.40;54.40;;;;;;4993527;28;20105;-74
2023/02/08 02:20:14;;;;;;;2.58;2.10;;;14.40;54.40;;;;;;4993579;28;20022;-74
2023/02/08 02:22:48;;;;;;;2.40;2.20;;;14.40;54.30;;;;;;4992770;28;20384;-74
2023/02/08 02:25:32;;;;;;;2.83;2.40;;;14.40;54.40;;;;;;4993489;28;20026;-74
2023/02/08 02:28:19;;;;;;;3.53;2.70;;;14.40;54.40;;;;;;4993546;28;20658;-75
2023/02/08 02:31:21;;;;;;;3.28;2.40;;;14.40;54.30;;;;;;4993461;28;20397;-76
2023/02/08 02:33:49;;;;;;;2.08;1.92;;;14.30;54.30;;;;;;4993293;28;20041;-76
2023/02/08 02:36:45;;;;;;;2.60;2.25;;;14.40;54.40;;;;;;4993242;28;20030;-76
2023/02/08 02:39:28;;;;;;;2.70;2.20;;;14.30;54.30;;;;;;4993255;28;20037;-76
2023/02/08 02:45:20;;;;;;;3.40;2.58;;;14.30;54.40;;;;;;4993594;28;20405;-76
2023/02/08 02:48:01;;;;;;;2.63;2.25;;;14.30;54.40;;;;;;4993127;28;20026;-76
2023/02/08 02:50:43;;;;;;;3.13;2.42;;;14.30;55.10;;;;;;4993101;28;20056;-76
2023/02/08 02:53:27;;;;;;;2.97;2.25;;;14.30;54.40;;;;;;4993049;28;20037;-76
2023/02/08 02:56:01;;;;;;;3.13;2.20;;;14.30;54.40;;;;;;4992980;28;20061;-76
2023/02/08 02:58:27;;;;;;;3.10;2.65;;;14.20;54.30;;;;;;4993017;28;20026;-76
2023/02/08 03:00:55;;;;;;;3.05;2.45;;;14.30;54.40;;;;;;4992973;28;20029;-76
2023/02/08 03:03:31;;;;;;;2.90;2.25;;;14.20;54.30;;;;;;4992764;28;20046;-76
2023/02/08 03:06:03;;;;;;;3.45;2.38;;;14.20;54.30;;;;;;4992907;28;20030;-76
2023/02/08 03:09:13;;;;;;;3.33;2.45;;;14.20;54.30;;;;;;4975389;28;20049;-76
2023/02/08 03:11:44;;;;;;;3.13;2.20;;;14.30;54.30;;;;;;4972381;28;20049;-76
2023/02/08 03:14:27;;;;;;;3.40;2.40;;;14.20;54.40;;;;;;4992812;28;20038;-76
2023/02/08 03:17:01;;;;;;;3.75;2.40;;;14.20;54.40;;;;;;4992745;28;20026;-76
2023/02/08 03:19:41;;;;;;;3.50;2.25;;;14.20;54.30;;;;;;4992706;28;20385;-76
2023/02/08 03:22:22;;;;;;;2.58;2.22;;;14.20;54.40;;;;;;4992736;28;20113;-76
2023/02/08 03:25:08;;;;;;;2.35;2.15;;;14.20;54.40;;;;;;4992721;28;20052;-76
2023/02/08 03:27:40;;;;;;;2.25;1.90;;;14.20;54.40;;;;;;4992716;28;20065;-76
2023/02/08 03:30:23;;;;;;;3.03;2.17;;;14.20;54.40;;;;;;4975268;28;20050;-76
2023/02/08 03:32:59;;;;;;;2.70;2.30;;;14.10;54.40;;;;;;4993867;28;20038;-75
2023/02/08 03:35:31;;;;;;;3.28;2.45;;;14.10;54.30;;;;;;4996784;28;20022;-76
2023/02/08 03:38:04;;;;;;;3.13;2.35;;;14.10;54.40;;;;;;4996642;28;20030;-76
2023/02/08 03:40:37;;;;;;;3.42;2.50;;;14.10;54.40;;;;;;4996672;28;20057;-76
2023/02/08 03:43:10;;;;;;;3.10;2.42;;;14.10;54.40;;;;;;4996543;28;20066;-76
2023/02/08 03:45:41;;;;;;;2.92;2.63;;;14.10;54.40;;;;;;4996500;28;20029;-76
2023/02/08 03:48:10;;;;;;;3.15;2.38;;;14.10;54.40;;;;;;4996483;28;20034;-75
2023/02/08 03:50:38;;;;;;;3.60;2.38;;;14.10;54.40;;;;;;4996567;28;20019;-76
2023/02/08 03:53:07;;;;;;;3.38;2.00;;;14.10;54.30;;;;;;4996489;28;20465;-76
2023/02/08 03:55:35;;;;;;;2.70;1.98;;;14.10;54.30;;;;;;4996561;28;20405;-76
2023/02/08 03:58:15;;;;;;;2.92;2.40;;;14.10;54.30;;;;;;4996480;28;20417;-76
2023/02/08 04:00:48;;;;;;;2.58;2.22;;;14.10;54.40;;;;;;4996300;28;20026;-76
2023/02/08 04:03:21;;;;;;;3.17;2.58;;;14.00;54.30;;;;;;4995859;28;20497;-76
2023/02/08 04:05:48;;;;;;;3.67;2.40;;;14.00;54.40;;;;;;4995997;28;20026;-75
2023/02/08 04:08:13;;;;;;;2.90;2.50;;;14.00;54.40;;;;;;4978718;28;20393;-76
2023/02/08 04:10:39;;;;;;;3.30;2.17;;;14.00;54.40;;;;;;4995928;28;20022;-76
2023/02/08 04:13:05;;;;;;;2.95;2.38;;;14.00;54.40;;;;;;4996151;28;20030;-76
2023/02/08 04:15:30;;;;;;;2.60;2.00;;;13.90;54.30;;;;;;4995955;28;20023;-75
2023/02/08 04:17:56;;;;;;;2.65;2.10;;;14.00;54.40;;;;;;4995850;28;20061;-75
2023/02/08 04:20:21;;;;;;;4.25;2.50;;;14.00;54.40;;;;;;4995814;28;20048;-76
2023/02/08 04:22:47;;;;;;;2.88;2.25;;;14.00;54.40;;;;;;4996038;28;20030;-75
2023/02/08 04:25:13;;;;;;;2.95;2.50;;;14.00;54.40;;;;;;4995712;28;20026;-75
2023/02/08 04:27:39;;;;;;;2.85;2.17;;;13.90;54.30;;;;;;4995689;28;20045;-76
2023/02/08 04:30:04;;;;;;;3.30;2.28;;;13.90;54.30;;;;;;4995583;28;20022;-76
2023/02/08 04:32:30;;;;;;;3.50;2.33;;;13.90;54.30;;;;;;4995548;28;20038;-75
2023/02/08 04:34:56;;;;;;;3.00;2.30;;;13.90;54.30;;;;;;4995790;28;20073;-75
2023/02/08 04:37:21;;;;;;;3.90;2.55;;;13.90;54.30;;;;;;4995888;28;20031;-76
2023/02/08 04:39:47;;;;;;;2.20;2.00;;;13.90;54.40;;;;;;4995399;28;20029;-76
2023/02/08 04:42:13;;;;;;;2.45;2.25;;;13.90;55.00;;;;;;4995462;28;20043;-75
2023/02/08 04:44:38;;;;;;;4.00;2.50;;;13.90;54.40;;;;;;4994266;28;20413;-76
2023/02/08 04:47:04;;;;;;;2.60;2.40;;;13.90;54.40;;;;;;4995277;28;20089;-76
2023/02/08 04:49:29;;;;;;;3.00;2.28;;;13.90;54.40;;;;;;4995256;28;20022;-75
2023/02/08 04:51:55;;;;;;;2.38;2.13;;;13.90;54.50;;;;;;4995188;28;20104;-76
2023/02/08 04:54:21;;;;;;;2.45;2.22;;;13.80;54.50;;;;;;4995279;28;20274;-76
2023/02/08 04:56:46;;;;;;;2.63;2.33;;;13.90;54.50;;;;;;4995123;28;20038;-75
2023/02/08 04:59:12;;;;;;;2.88;2.30;;;13.80;54.50;;;;;;4995010;28;20022;-75
2023/02/08 05:01:38;;;;;;;2.10;1.80;;;13.80;55.10;;;;;;4995043;28;20034;-75
2023/02/08 05:04:03;;;;;;;2.97;2.15;;;13.80;54.60;;;;;;4994999;28;20038;-75
2023/02/08 05:06:29;;;;;;;4.13;2.38;;;13.80;54.50;;;;;;4994976;28;20116;-75
2023/02/08 05:08:54;;;;;;;2.10;1.90;;;13.80;54.50;;;;;;4994938;28;20070;-75
2023/02/08 05:11:24;;;;;;;4.03;2.72;;;13.80;54.50;;;;;;4977482;28;20450;-76
2023/02/08 05:13:50;;;;;;;3.67;2.67;;;13.80;54.60;;;;;;4994741;28;20045;-76
2023/02/08 05:16:16;;;;;;;2.08;1.77;;;13.80;54.60;;;;;;4977240;28;20050;-75
2023/02/08 05:18:43;;;;;;;4.40;2.20;;;13.80;54.50;;;;;;4977207;28;20045;-76
2023/02/08 05:21:08;;;;;;;2.67;2.00;;;13.80;54.60;;;;;;4994650;28;20034;-76
2023/02/08 05:23:35;;;;;;;5.22;2.45;;;13.80;54.60;;;;;;4994626;28;20023;-75
2023/02/08 05:26:06;;;;;;;2.25;2.03;;;13.80;55.30;;;;;;4994592;28;20189;-75
2023/02/08 05:28:31;;;;;;;3.03;2.00;;;13.80;54.60;;;;;;4994748;28;20385;-76
2023/02/08 05:30:57;;;;;;;2.22;2.03;;;13.80;55.20;;;;;;4994633;28;20027;-76
2023/02/08 05:33:22;;;;;;;3.10;2.25;;;13.80;54.70;;;;;;4994438;28;20354;-75
2023/02/08 05:35:48;;;;;;;2.38;2.00;;;13.70;54.60;;;;;;4994466;28;20033;-75
2023/02/08 05:38:14;;;;;;;3.53;2.55;;;13.70;54.60;;;;;;4994505;28;20077;-76
2023/02/08 05:40:39;;;;;;;3.30;2.20;;;13.70;54.70;;;;;;4994365;28;20512;-76
2023/02/08 05:43:05;;;;;;;3.03;2.20;;;13.70;54.60;;;;;;4994272;28;20473;-76
2023/02/08 05:45:31;;;;;;;2.55;2.22;;;13.70;54.60;;;;;;4994442;28;20018;-76
2023/02/08 05:47:57;;;;;;;2.28;2.00;;;13.80;54.70;;;;;;4994546;28;20030;-76
2023/02/08 05:50:22;;;;;;;2.88;2.35;;;13.70;54.60;;;;;;4994357;28;20076;-76
2023/02/08 05:52:48;;;;;;;2.25;2.05;;;13.70;54.60;;;;;;4994328;28;20034;-76
2023/02/08 05:55:13;;;;;;;2.08;1.85;;;13.70;55.30;;;;;;4993781;28;20117;-76
2023/02/08 05:57:39;;;;;;;2.95;2.28;;;13.70;55.00;;;;;;4994068;28;20536;-76
2023/02/08 06:00:05;;;;;;;3.42;2.10;;;13.70;54.80;;;;;;4993885;28;20019;-76
2023/02/08 06:02:32;;;;;;;2.35;2.10;;;13.70;54.80;;;;;;4993652;28;20389;-76
2023/02/08 06:04:57;;;;;;;2.63;2.00;;;13.70;54.80;;;;;;4994020;28;20022;-76
2023/02/08 06:07:23;;;;;;;2.78;2.22;;;13.60;55.30;;;;;;4993838;28;20038;-76
2023/02/08 06:09:48;;;;;;;2.05;1.85;;;13.70;54.80;;;;;;4993761;28;20026;-76
2023/02/08 06:12:14;;;;;;;3.13;2.05;;;13.60;54.70;;;;;;4993638;28;20041;-76
2023/02/08 06:14:40;;;;;;;3.03;2.20;;;13.60;54.60;;;;;;4993667;28;20037;-76
2023/02/08 06:17:05;;;;;;;2.33;2.10;;;13.70;54.60;;;;;;4993604;28;20030;-76
2023/02/08 06:19:31;;;;;;;2.58;2.28;;;13.60;54.60;;;;;;4993584;28;20050;-76
2023/02/08 06:21:56;;;;;;;3.00;2.15;;;13.60;54.60;;;;;;4993572;28;20053;-76
2023/02/08 06:24:24;;;;;;;2.88;2.08;;;13.60;54.60;;;;;;4992952;28;20023;-76
2023/02/08 06:26:49;;;;;;;2.95;2.30;;;13.70;54.60;;;;;;4993420;28;20022;-76
2023/02/08 06:29:15;;;;;;;2.88;2.38;;;13.60;54.60;;;;;;4993650;28;20026;-75
2023/02/08 06:31:41;;;;;;;2.63;2.20;;;13.60;54.60;;;;;;4996946;28;20022;-76
2023/02/08 06:34:06;;;;;;;2.90;2.10;;;13.60;54.50;;;;;;4976196;28;20038;-76
2023/02/08 06:36:32;;;;;;;2.45;1.88;;;13.60;54.60;;;;;;4993258;28;20106;-76
2023/02/08 06:38:58;;;;;;;3.42;2.45;;;13.60;54.60;;;;;;4993192;28;20027;-76
2023/02/08 06:41:24;;;;;;;3.45;2.47;;;13.60;54.60;;;;;;4993218;28;20026;-75
2023/02/08 06:43:49;;;;;;;3.05;2.50;;;13.60;54.60;;;;;;4993282;28;20022;-75
2023/02/08 06:46:15;;;;;;;2.88;2.22;;;13.60;54.60;;;;;;4993088;28;20034;-75
2023/02/08 06:48:40;;;;;;;2.80;2.20;;;13.50;54.60;;;;;;4975601;28;20029;-76
2023/02/08 06:51:06;;;;;;;2.20;2.00;;;13.60;55.30;;;;;;4993018;28;20101;-75
2023/02/08 06:53:32;;;;;;;2.92;2.28;;;13.50;54.60;;;;;;4992905;28;20038;-76
2023/02/08 06:55:57;;;;;;;2.63;2.10;;;13.50;54.60;;;;;;4993278;28;20030;-76
2023/02/08 06:58:23;;;;;;;2.97;2.30;;;13.60;54.70;;;;;;4992911;28;20030;-76
2023/02/08 07:00:48;;;;;;;3.28;2.40;;;13.50;54.60;;;;;;4993301;28;20026;-76
2023/02/08 07:03:17;;;;;;;3.08;2.30;;;13.50;55.20;;;;;;4992737;28;20047;-76
2023/02/08 07:05:43;;;;;;;2.40;1.73;;;13.50;54.70;;;;;;4992874;28;20025;-76
2023/02/08 07:08:09;;;;;;;2.53;2.15;;;13.50;54.70;;;;;;4992187;28;20027;-76
2023/02/08 07:10:36;;;;;;;2.72;2.22;;;13.50;54.70;;;;;;4992808;28;20069;-76
2023/02/08 07:13:02;;;;;;;2.75;2.20;;;13.50;54.70;;;;;;4992652;28;20034;-76
2023/02/08 07:15:29;;;;;;;3.28;2.08;;;13.50;54.80;;;;;;4992723;28;20457;-76
2023/02/08 07:17:55;;;;;;;4.30;2.53;;;13.50;54.70;;;;;;4992673;28;20030;-77
2023/02/08 07:20:21;;;;;;;4.13;3.05;;;13.50;54.30;;;;;;4992681;28;20018;-76
2023/02/08 07:22:47;;;;;;;6.88;3.40;;;13.50;54.10;;;;;;4993755;28;20077;-76
2023/02/08 07:25:12;;;;;;;3.47;2.78;;;13.50;54.20;;;;;;4995494;28;20031;-76
2023/02/08 07:27:38;;;;;;;3.05;2.38;;;13.50;54.10;;;;;;4992543;28;20495;-79
2023/02/08 07:30:04;;;;;;;5.70;3.13;;;13.50;54.10;;;;;;4992677;28;20046;-79
2023/02/08 07:32:30;;;;;;;4.90;2.78;;;13.50;54.10;;;;;;4992541;28;20522;-76
2023/02/08 07:34:55;;;;;;;3.00;2.42;;;13.50;54.00;;;;;;4992555;28;20031;-78
2023/02/08 07:37:21;;;;;;;3.75;2.97;;;13.50;54.10;;;;;;4992689;28;20030;-76
2023/02/08 07:39:47;;;;;;;4.18;2.10;;;13.50;54.10;;;;;;4992562;28;20524;-76
2023/02/08 07:42:12;;;;;;;3.20;2.53;;;13.40;54.10;;;;;;4992504;28;20189;-77
2023/02/08 07:44:38;;;;;;;4.30;2.58;;;13.40;54.10;;;;;;4992418;28;20026;-76
2023/02/08 07:47:04;;;;;;;4.55;2.83;;;13.40;54.10;;;;;;4992594;28;20030;-76
2023/02/08 07:49:31;;;;;;;3.53;2.45;;;13.40;54.10;;;;;;4992542;28;20023;-77
2023/02/08 07:51:58;;;;;;;5.65;2.75;;;13.40;54.20;;;;;;4992346;28;20517;-76
2023/02/08 07:54:23;;;;;;;3.58;2.45;;;13.40;54.10;;;;;;4992425;28;20054;-75
2023/02/08 07:56:49;;;;;;;8.10;2.65;;;13.40;54.10;;;;;;4992457;28;20080;-75
2023/02/08 07:59:15;;;;;;;4.45;2.53;;;13.40;54.80;;;;;;4975090;28;20116;-76
2023/02/08 08:01:41;;;;;;;7.32;2.80;;;13.40;54.20;;;;;;4992128;28;20033;-78
2023/02/08 08:04:06;;;;;;;4.07;2.65;;;13.40;54.20;;;;;;4992349;28;20433;-76
2023/02/08 08:06:32;;;;;;;5.05;3.10;;;13.40;54.20;;;;;;4974946;28;20035;-76
2023/02/08 08:08:58;;;;;;;6.35;2.70;;;13.40;54.20;;;;;;4992237;28;20030;-75
2023/02/08 08:11:23;;;;;;;3.42;2.45;;;13.30;54.30;;;;;;4991746;28;20101;-77
2023/02/08 08:13:50;;;;;;;4.50;2.72;;;13.30;54.40;;;;;;4992164;28;20493;-75
2023/02/08 08:16:16;;;;;;;5.32;2.95;;;13.30;54.60;;;;;;4992230;28;20038;-76
2023/02/08 08:18:42;;;;;;;5.25;2.72;;;13.20;54.60;;;;;;4993358;28;20054;-76
2023/02/08 08:21:08;;;;;;;4.82;2.47;;;13.20;54.60;;;;;;4995912;28;20673;-73
2023/02/08 08:23:35;;;;;;;3.20;2.40;;;13.20;54.70;;;;;;4996099;28;20101;-76
2023/02/08 08:26:15;;;;;;;4.00;2.80;;;13.20;54.80;;;;;;4995771;28;20029;-76
2023/02/08 08:28:42;;;;;;;4.07;2.67;;;13.20;54.70;;;;;;4995761;28;20026;-76
2023/02/08 08:31:10;;;;;;;4.80;2.78;;;13.20;54.80;;;;;;4994857;28;20033;-75
2023/02/08 08:33:36;;;;;;;4.75;2.90;;;13.20;54.70;;;;;;4995805;28;20030;-75
2023/02/08 08:36:02;;;;;;;4.20;2.85;;;13.20;54.70;;;;;;4995518;28;20018;-76
2023/02/08 08:38:28;;;;;;;3.53;2.40;;;13.10;54.60;;;;;;4995475;28;20121;-76
2023/02/08 08:40:54;;;;;;;3.05;2.65;;;13.20;54.60;;;;;;4995790;28;20046;-83
2023/02/08 08:43:20;;;;;;;3.10;2.45;;;13.10;54.70;;;;;;4995352;28;20045;-77
2023/02/08 08:45:46;;;;;;;4.32;2.83;;;13.20;54.70;;;;;;4978322;28;20018;-76
2023/02/08 08:48:12;;;;;;;5.60;2.70;;;13.10;54.60;;;;;;4995315;28;20390;-76
2023/02/08 08:50:38;;;;;;;2.70;2.38;;;13.10;54.70;;;;;;4995474;28;20031;-75
2023/02/08 08:53:04;;;;;;;3.45;2.58;;;13.10;54.70;;;;;;4995246;28;20030;-76
2023/02/08 08:55:29;;;;;;;4.05;3.08;;;13.10;54.60;;;;;;4995157;28;20117;-76
2023/02/08 08:57:55;;;;;;;4.13;3.45;;;13.10;54.50;;;;;;4995159;28;20076;-76
2023/02/08 09:00:21;;;;;;;4.55;2.78;;;13.10;54.60;;;;;;4995189;28;20165;-75
2023/02/08 09:02:46;;;;;;;5.15;3.60;;;13.10;54.60;;;;;;4994910;28;20454;-76
2023/02/08 09:05:12;;;;;;;4.25;2.85;;;13.10;54.70;;;;;;4996877;28;20057;-76
2023/02/08 09:07:37;;;;;;;3.50;2.83;;;13.10;54.70;;;;;;4999827;28;20030;-76
2023/02/08 09:10:03;;;;;;;3.67;2.88;;;13.00;54.80;;;;;;4994971;28;20044;-76
2023/02/08 09:12:29;;;;;;;7.78;3.15;;;13.00;54.80;;;;;;4994788;28;20038;-73
2023/02/08 09:14:54;;;;;;;4.57;3.33;;;13.10;55.00;;;;;;4994842;28;20022;-74
2023/02/08 09:17:20;;;;;;;5.88;3.22;;;13.00;55.50;;;;;;4994834;28;20492;-77
2023/02/08 09:19:46;;;;;;;4.85;3.00;;;13.00;54.80;;;;;;4994809;28;20097;-74
2023/02/08 09:22:12;;;;;;;3.22;2.90;;;13.10;54.90;;;;;;4994678;28;20085;-74
2023/02/08 09:24:38;;;;;;;5.32;3.00;;;13.10;54.90;;;;;;4994769;28;20033;-75
2023/02/08 09:27:04;;;;;;;3.60;3.13;;;13.10;54.90;;;;;;4994723;28;20374;-75
2023/02/08 09:29:31;;;;;;;3.90;2.97;;;13.10;54.90;;;;;;4994685;28;20029;-75
2023/02/08 09:31:57;;;;;;;3.75;3.05;;;13.10;54.90;;;;;;4993821;28;20091;-75
2023/02/08 09:34:23;;;;;;;3.17;2.78;;;13.10;54.80;;;;;;4994538;28;20090;-77
2023/02/08 09:36:48;;;;;;;4.22;2.72;;;13.20;54.80;;;;;;4994761;28;20101;-75
2023/02/08 09:39:17;;;;;;;4.20;3.10;;;13.20;54.70;;;;;;4994373;28;20080;-75
2023/02/08 09:41:52;;;;;;;3.85;2.85;;;13.20;54.70;;;;;;4994276;28;20030;-75
2023/02/08 09:44:36;;;;;;;5.05;3.70;;;13.20;54.70;;;;;;4994350;28;20031;-75
2023/02/08 09:47:20;;;;;;;4.93;2.80;;;13.30;54.50;;;;;;4994613;28;20065;-75
2023/02/08 09:49:57;;;;;;;4.05;3.10;;;13.30;54.50;;;;;;4994314;28;20081;-76
2023/02/08 09:52:29;;;;;;;4.63;2.65;;;13.30;54.40;;;;;;4994055;28;20034;-76
2023/02/08 09:55:02;;;;;;;4.95;3.30;;;13.40;54.50;;;;;;4977415;28;20054;-75
2023/02/08 09:57:32;;;;;;;4.18;3.08;;;13.40;54.40;;;;;;4993839;28;20033;-78
2023/02/08 10:00:12;;;;;;;3.72;2.83;;;13.40;54.40;;;;;;4993834;28;20034;-80
2023/02/08 10:02:40;;;;;;;4.35;3.05;;;13.50;54.40;;;;;;4993725;28;20055;-77
2023/02/08 10:05:21;;;;;;;4.20;3.17;;;13.50;54.30;;;;;;4993973;28;20030;-75
2023/02/08 10:07:47;;;;;;;5.18;3.38;;;13.60;54.30;;;;;;4994022;28;20413;-76
2023/02/08 10:10:23;;;;;;;4.65;2.97;;;13.60;54.40;;;;;;4994050;28;20081;-76
2023/02/08 10:13:20;;;;;;;5.22;3.53;;;13.60;54.20;;;;;;4994027;28;20062;-76
2023/02/08 10:15:52;;;;;;;5.07;2.80;;;13.60;54.10;;;;;;4994101;28;20065;-76
2023/02/08 10:18:35;;;;;;;7.30;3.35;;;13.70;54.20;;;;;;4993692;28;20473;-77
2023/02/08 10:21:16;;;;;;;4.10;3.10;;;13.70;54.10;;;;;;4993558;28;20485;-76
2023/02/08 10:24:12;;;;;;;5.05;3.72;;;13.80;54.10;;;;;;4993781;28;20088;-75
2023/02/08 10:26:56;;;;;;;5.45;3.05;;;13.80;53.90;;;;;;4993797;28;20026;-78
2023/02/08 10:29:39;;;;;;;3.65;3.08;;;13.90;53.90;;;;;;4976458;28;20428;-76
2023/02/08 10:32:34;;;;;;;4.20;3.22;;;13.90;53.70;;;;;;4993496;28;20384;-78
2023/02/08 10:35:04;;;;;;;4.95;3.22;;;14.00;53.80;;;;;;4993659;28;20018;-78
2023/02/08 10:37:35;;;;;;;5.13;3.60;;;14.00;53.70;;;;;;4993464;28;20027;-76
2023/02/08 10:40:34;;;;;;;4.68;3.42;;;14.10;53.80;;;;;;4993470;28;20362;-78
2023/02/08 10:43:34;;;;;;;4.30;3.03;;;14.10;53.80;;;;;;4992541;28;20422;-76
2023/02/08 10:46:27;;;;;;;3.77;2.77;;;14.10;53.60;;;;;;4993331;28;20498;-75
2023/02/08 10:49:10;;;;;;;3.20;2.90;;;14.20;53.50;;;;;;4993242;28;20030;-80
2023/02/08 10:51:36;;;;;;;3.53;2.83;;;14.20;53.60;;;;;;4993196;28;20026;-77
2023/02/08 10:54:02;;;;;;;4.40;3.25;;;14.30;53.50;;;;;;4993046;28;20041;-79
2023/02/08 10:56:30;;;;;;;4.57;3.17;;;14.30;53.50;;;;;;4993090;28;20030;-76
2023/02/08 10:59:13;;;;;;;5.63;3.03;;;14.40;53.70;;;;;;4993084;28;20488;-75
2023/02/08 11:01:39;;;;;;;5.15;3.00;;;14.40;53.50;;;;;;4992791;28;20030;-77
2023/02/08 11:04:11;;;;;;;3.97;2.95;;;14.50;53.20;;;;;;4992996;28;20492;-77
2023/02/08 11:06:39;;;;;;;4.15;2.85;;;14.50;53.70;;;;;;4992951;28;20030;-78
2023/02/08 11:09:05;;;;;;;4.30;2.72;;;14.50;53.40;;;;;;4992954;28;20026;-77
2023/02/08 11:11:38;;;;;;;3.38;2.53;;;14.60;53.40;;;;;;4992803;28;20101;-77
2023/02/08 11:14:15;;;;;;;3.17;2.85;;;14.60;53.60;;;;;;4992921;28;20401;-77
2023/02/08 11:16:42;;;;;;;3.97;2.92;;;14.70;53.80;;;;;;4992856;28;20042;-77
2023/02/08 11:19:27;;;;;;;3.10;2.80;;;14.70;53.90;;;;;;4992930;28;20026;-78
2023/02/08 11:21:53;;;;;;;3.30;2.88;;;14.70;53.70;;;;;;4992774;28;20029;-78
2023/02/08 11:24:49;;;;;;;3.42;3.08;;;14.80;53.50;;;;;;4992767;28;20022;-78
2023/02/08 11:27:36;;;;;;;3.50;3.20;;;14.80;53.70;;;;;;4992550;28;20052;-79
2023/02/08 11:30:23;;;;;;;3.97;3.00;;;14.90;53.80;;;;;;4992775;28;20381;-78
2023/02/08 11:33:09;;;;;;;5.43;2.92;;;14.90;53.60;;;;;;4992577;28;20499;-77
2023/02/08 11:35:36;;;;;;;2.97;2.67;;;15.00;53.70;;;;;;4992598;28;20026;-77
2023/02/08 11:38:02;;;;;;;2.97;2.50;;;15.00;53.40;;;;;;4992772;28;20034;-79
2023/02/08 11:40:32;;;;;;;5.60;3.05;;;15.10;53.10;;;;;;4992563;28;20085;-79
2023/02/08 11:42:58;;;;;;;3.90;2.72;;;15.20;54.20;;;;;;4992830;28;20442;-78
2023/02/08 11:45:29;;;;;;;4.15;2.83;;;15.30;53.10;;;;;;4992730;28;20046;-78
2023/02/08 11:47:55;;;;;;;3.83;3.00;;;15.30;53.10;;;;;;4992576;28;20022;-78
2023/02/08 11:50:31;;;;;;;5.40;3.33;;;15.40;53.20;;;;;;4992727;28;20018;-78
2023/02/08 11:52:59;;;;;;;4.13;2.67;;;15.40;53.00;;;;;;4992429;28;20520;-78
2023/02/08 11:55:27;;;;;;;3.22;2.80;;;15.50;52.70;;;;;;4996510;28;20101;-78
2023/02/08 11:57:53;;;;;;;3.95;2.80;;;15.60;52.90;;;;;;4996380;28;20034;-78
2023/02/08 12:00:25;;;;;;;3.65;2.50;;;15.60;52.70;;;;;;4996246;28;20543;-78
2023/02/08 12:03:00;;;;;;;2.53;2.20;;;15.60;52.40;;;;;;4995964;28;20054;-78
2023/02/08 12:05:43;;;;;;;3.35;2.47;;;15.70;52.50;;;;;;4996349;28;20019;-78
2023/02/08 12:08:22;;;;;;;2.67;2.40;;;15.80;52.40;;;;;;4978682;28;20019;-77
2023/02/08 12:10:51;;;;;;;3.47;2.30;;;15.90;52.30;;;;;;4996142;28;20022;-77
2023/02/08 12:13:43;;;;;;;4.32;3.03;;;15.90;52.40;;;;;;4995990;28;20030;-77
2023/02/08 12:16:09;;;;;;;4.68;2.42;;;15.90;52.20;;;;;;4996073;28;20500;-77
2023/02/08 12:19:16;;;;;;;4.32;2.60;;;16.00;52.20;;;;;;4995907;28;20049;-77
2023/02/08 12:21:43;;;;;;;4.07;2.58;;;16.10;52.30;;;;;;4969220;28;20472;-77
2023/02/08 12:24:33;;;;;;;3.92;2.72;;;16.20;52.40;;;;;;4995872;28;20353;-85
2023/02/08 12:27:01;;;;;;;5.47;2.35;;;16.20;52.10;;;;;;4995838;28;20105;-79
2023/02/08 12:29:44;;;;;;;3.92;2.28;;;16.20;52.10;;;;;;4995829;28;20503;-79
2023/02/08 12:32:31;;;;;;;3.20;2.30;;;16.30;51.90;;;;;;4978531;28;20030;-79
2023/02/08 12:35:35;;;;;;;3.63;2.47;;;16.40;51.80;;;;;;4995700;28;20026;-79
2023/02/08 12:41:25;;;;;;;2.42;2.22;;;16.60;51.50;;;;;;4995565;28;20045;-79
2023/02/08 12:44:21;;;;;;;2.85;2.30;;;16.70;51.30;;;;;;4995544;28;20489;-78
2023/02/08 12:47:08;;;;;;;3.80;2.53;;;16.70;51.40;;;;;;4995468;28;20038;-78
2023/02/08 12:49:43;;;;;;;3.13;2.38;;;16.80;51.00;;;;;;4995517;28;20062;-78
2023/02/08 12:52:35;;;;;;;2.78;2.28;;;16.80;51.00;;;;;;4995389;28;20029;-78
2023/02/08 12:55:24;;;;;;;2.63;2.25;;;16.90;51.00;;;;;;4995307;28;20023;-78
2023/02/08 12:57:53;;;;;;;3.70;3.10;;;17.00;50.90;;;;;;4995339;28;20029;-78
2023/02/08 13:00:27;;;;;;;3.00;2.30;;;17.00;50.80;;;;;;4995255;28;20022;-79
2023/02/08 13:03:06;;;;;;;3.28;2.35;;;17.10;50.70;;;;;;4994944;28;20038;-79
2023/02/08 13:05:42;;;;;;;2.53;2.28;;;17.10;50.50;;;;;;4994173;28;20022;-78
2023/02/08 13:08:21;;;;;;;2.40;2.10;;;17.20;50.60;;;;;;4995062;28;20437;-78
2023/02/08 13:10:54;;;;;;;2.28;2.08;;;17.10;50.60;;;;;;4995065;28;20087;-77
2023/02/08 13:13:25;;;;;;;3.45;2.35;;;17.30;50.50;;;;;;4995021;28;20031;-78